createdAt,value
2023-03-19T00:02:27.984Z,13.23
2023-03-19T00:04:57.985Z,13.32
2023-03-19T00:07:26.514Z,13.80
2023-03-19T00:09:55.094Z,13.43
2023-03-19T00:12:24.430Z,13.68
2023-03-19T00:14:52.951Z,13.13
2023-03-19T00:17:21.711Z,13.23
2023-03-19T00:19:50.476Z,12.90
2023-03-19T00:22:20.543Z,13.80
2023-03-19T00:24:51.454Z,14.07
2023-03-19T00:27:19.858Z,14.90
2023-03-19T00:29:48.649Z,14.10
2023-03-19T00:32:17.755Z,14.65
2023-03-19T00:34:46.519Z,15.65
2023-03-19T00:37:16.457Z,15.30
2023-03-19T00:39:46.512Z,14.88
2023-03-19T00:42:16.640Z,15.52
2023-03-19T00:44:45.170Z,16.40
2023-03-19T00:47:13.860Z,14.93
2023-03-19T00:49:42.521Z,16.17
2023-03-19T00:52:11.213Z,16.10
2023-03-19T00:54:41.562Z,15.75
2023-03-19T00:57:11.854Z,16.55
2023-03-19T00:59:40.349Z,15.55
2023-03-19T01:02:08.846Z,16.17
2023-03-19T01:04:37.959Z,16.00
2023-03-19T01:07:06.725Z,16.50
2023-03-19T01:09:35.951Z,16.10
2023-03-19T01:12:04.885Z,17.33
2023-03-19T01:14:35.937Z,16.80
2023-03-19T01:17:04.504Z,15.98
2023-03-19T01:19:34.093Z,16.33
2023-03-19T01:22:02.927Z,17.05
2023-03-19T01:24:32.686Z,16.65
2023-03-19T01:27:01.180Z,15.65
2023-03-19T01:29:38.515Z,16.70
2023-03-19T01:32:30.076Z,15.75
2023-03-19T01:35:24.847Z,15.02
2023-03-19T01:37:53.589Z,16.10
2023-03-19T01:40:22.673Z,16.90
2023-03-19T01:42:55.499Z,16.80
2023-03-19T01:46:06.230Z,16.40
2023-03-19T01:48:57.204Z,16.55
2023-03-19T01:51:28.607Z,15.38
2023-03-19T01:54:17.408Z,16.02
2023-03-19T01:56:54.473Z,15.77
2023-03-19T05:03:53.951Z,16.90
2023-03-19T05:06:23.010Z,18.98
2023-03-19T05:08:51.906Z,18.25
2023-03-19T05:11:21.974Z,18.35
2023-03-19T05:14:22.821Z,19.77
2023-03-19T05:17:01.510Z,21.15
2023-03-19T05:19:40.607Z,20.48
2023-03-19T05:22:10.870Z,20.45
2023-03-19T05:24:40.214Z,20.38
2023-03-19T05:27:09.982Z,20.92
2023-03-19T05:29:58.613Z,21.48
2023-03-19T05:32:47.478Z,21.00
2023-03-19T05:35:30.761Z,23.10
2023-03-19T05:38:00.411Z,25.30
2023-03-19T05:40:29.453Z,24.67
2023-03-19T05:43:00.616Z,23.65
2023-03-19T05:45:30.809Z,25.25
2023-03-19T05:48:04.125Z,25.40
2023-03-19T05:50:40.186Z,25.00
2023-03-19T05:53:17.992Z,25.48
2023-03-19T05:55:57.298Z,27.40
2023-03-19T05:58:28.146Z,27.23
2023-03-19T06:00:57.837Z,29.10
2023-03-19T06:03:27.094Z,32.28
2023-03-19T06:05:57.895Z,35.13
2023-03-19T06:08:40.259Z,38.63
2023-03-19T06:11:26.508Z,38.53
2023-03-19T06:14:18.077Z,42.72
2023-03-19T06:17:04.660Z,39.90
2023-03-19T06:19:33.349Z,39.35
2023-03-19T06:22:03.740Z,38.55
2023-03-19T06:24:32.384Z,40.28
2023-03-19T06:27:01.476Z,38.90
2023-03-19T06:29:32.991Z,38.58
2023-03-19T06:32:14.249Z,34.53
2023-03-19T06:34:44.547Z,35.92
2023-03-19T06:37:14.756Z,29.88
2023-03-19T06:39:43.335Z,26.58
2023-03-19T06:42:13.245Z,29.63
2023-03-19T06:44:41.763Z,27.15
2023-03-19T06:47:10.614Z,27.30
2023-03-19T06:49:41.788Z,26.20
2023-03-19T06:52:10.327Z,26.05
2023-03-19T06:54:40.131Z,25.27
2023-03-19T06:57:08.686Z,25.50
2023-03-19T06:59:37.393Z,25.58
2023-03-19T07:02:06.274Z,28.27
2023-03-19T07:04:35.533Z,24.77
2023-03-19T07:07:05.997Z,23.92
2023-03-19T07:09:34.527Z,24.40
2023-03-19T07:12:04.568Z,22.52
2023-03-19T07:14:33.042Z,23.23
2023-03-19T07:17:01.567Z,22.65
2023-03-19T07:19:30.220Z,23.10
2023-03-19T07:21:58.705Z,24.48
2023-03-19T07:24:27.207Z,23.63
2023-03-19T07:26:55.681Z,22.60
2023-03-19T07:29:25.611Z,21.85
2023-03-19T07:31:54.212Z,22.55
2023-03-19T07:34:23.200Z,21.98
2023-03-19T07:36:53.038Z,22.88
2023-03-19T07:39:21.902Z,23.10
2023-03-19T07:41:50.512Z,21.80
2023-03-19T07:44:19.238Z,22.15
2023-03-19T07:46:49.073Z,21.52
2023-03-19T07:49:17.528Z,22.05
2023-03-19T07:51:46.462Z,21.70
2023-03-19T07:54:15.296Z,21.15
2023-03-19T07:56:43.850Z,22.92
2023-03-19T07:59:12.440Z,22.48
2023-03-19T08:01:41.355Z,20.42
2023-03-19T08:04:11.754Z,18.70
2023-03-19T08:06:40.330Z,20.10
2023-03-19T08:09:09.304Z,19.20
2023-03-19T08:11:38.068Z,17.35
2023-03-19T08:14:08.908Z,18.25
2023-03-19T08:16:38.415Z,17.40
2023-03-19T08:19:07.930Z,17.42
2023-03-19T08:21:41.667Z,16.08
2023-03-19T08:24:18.176Z,16.55
2023-03-19T08:26:55.931Z,17.08
2023-03-19T08:29:28.990Z,15.70
2023-03-19T08:32:00.840Z,16.10
2023-03-19T08:34:30.216Z,16.80
2023-03-19T08:37:00.798Z,15.25
2023-03-19T08:39:29.424Z,16.70
2023-03-19T08:41:58.096Z,17.38
2023-03-19T08:44:26.599Z,18.45
2023-03-19T08:46:56.352Z,19.48
2023-03-19T08:49:25.012Z,19.40
2023-03-19T08:51:53.504Z,20.08
2023-03-19T08:54:23.389Z,19.92
2023-03-19T08:56:54.253Z,22.38
2023-03-19T08:59:22.679Z,22.08
2023-03-19T09:01:52.880Z,22.60
2023-03-19T09:04:21.996Z,21.90
2023-03-19T09:06:51.666Z,21.25
2023-03-19T09:09:20.804Z,21.38
2023-03-19T09:11:50.959Z,21.63
2023-03-19T09:14:20.624Z,23.13
2023-03-19T09:16:49.120Z,24.50
2023-03-19T09:19:19.792Z,24.58
2023-03-19T09:21:48.230Z,23.67
2023-03-19T09:24:17.235Z,25.30
2023-03-19T09:26:45.874Z,24.50
2023-03-19T09:29:16.757Z,25.90
2023-03-19T09:31:45.585Z,27.55
2023-03-19T09:34:14.186Z,34.33
2023-03-19T09:36:42.666Z,31.60
2023-03-19T09:39:11.175Z,75.40
2023-03-19T09:41:42.821Z,29.30
2023-03-19T09:44:14.049Z,28.30
2023-03-19T09:46:46.457Z,29.40
2023-03-19T09:49:18.291Z,28.02
2023-03-19T09:51:48.951Z,29.70
2023-03-19T09:54:29.004Z,27.42
2023-03-19T09:56:57.711Z,27.98
2023-03-19T09:59:27.236Z,29.13
2023-03-19T10:02:01.115Z,26.60
2023-03-19T10:04:50.819Z,26.58
2023-03-19T10:07:26.381Z,26.85
2023-03-19T10:10:05.448Z,26.50
2023-03-19T10:12:42.000Z,25.70
2023-03-19T10:15:21.121Z,27.90
2023-03-19T10:17:58.100Z,24.48
2023-03-19T10:20:36.668Z,24.85
2023-03-19T10:23:10.329Z,26.60
2023-03-19T10:25:41.784Z,26.58
2023-03-19T10:28:16.124Z,22.83
2023-03-19T10:30:49.612Z,22.45
2023-03-19T10:33:23.516Z,21.08
2023-03-19T10:35:58.303Z,21.15
2023-03-19T10:38:27.558Z,23.02
2023-03-19T10:41:05.736Z,22.50
2023-03-19T10:43:34.874Z,19.02
2023-03-19T10:46:03.697Z,22.42
2023-03-19T10:48:35.058Z,16.17
2023-03-19T10:51:06.165Z,18.70
2023-03-19T10:53:35.767Z,17.95
2023-03-19T10:56:05.459Z,16.90
2023-03-19T10:58:34.370Z,21.70
2023-03-19T11:01:08.387Z,27.08
2023-03-19T11:03:39.218Z,15.52
2023-03-19T11:06:09.310Z,38.75
2023-03-19T11:08:38.384Z,21.00
2023-03-19T11:11:06.779Z,12.95
2023-03-19T11:13:36.136Z,13.38
2023-03-19T11:16:05.760Z,13.70
2023-03-19T11:18:41.141Z,12.32
2023-03-19T11:21:10.817Z,12.70
2023-03-19T11:23:41.464Z,16.48
2023-03-19T11:26:10.816Z,15.30
2023-03-19T11:28:39.580Z,11.07
2023-03-19T11:31:12.506Z,15.82
2023-03-19T11:33:47.589Z,16.00
2023-03-19T11:36:21.682Z,11.68
2023-03-19T11:39:03.175Z,13.53
2023-03-19T11:41:34.817Z,20.73
2023-03-19T11:44:06.552Z,14.20
2023-03-19T11:46:38.108Z,12.07
2023-03-19T11:49:14.516Z,11.90
2023-03-19T11:51:47.697Z,11.32
2023-03-19T11:54:19.975Z,10.52
2023-03-19T11:56:50.915Z,10.38
2023-03-19T11:59:33.917Z,12.32
2023-03-19T12:04:44.439Z,12.18
2023-03-19T12:07:17.431Z,11.50
2023-03-19T12:09:53.861Z,11.02
2023-03-19T12:12:26.608Z,12.55
2023-03-19T12:15:00.814Z,12.48
2023-03-19T12:17:37.574Z,11.63
2023-03-19T12:20:15.666Z,11.75
2023-03-19T12:22:50.564Z,11.00
2023-03-19T12:25:24.414Z,13.30
2023-03-19T12:27:56.586Z,10.73
2023-03-19T12:30:30.174Z,10.65
2023-03-19T12:33:04.543Z,12.68
2023-03-19T12:35:36.128Z,10.90
2023-03-19T12:38:06.509Z,10.63
2023-03-19T12:40:37.506Z,11.05
2023-03-19T12:43:08.445Z,11.93
2023-03-19T12:45:39.550Z,11.80
2023-03-19T12:48:09.816Z,12.20
2023-03-19T12:50:41.630Z,12.15
2023-03-19T12:53:13.172Z,12.83
2023-03-19T12:55:44.227Z,12.02
2023-03-19T12:58:16.952Z,11.82
2023-03-19T13:03:15.522Z,11.32
2023-03-19T13:05:47.393Z,12.25
2023-03-19T13:08:19.005Z,13.03
2023-03-19T13:10:47.549Z,13.75
2023-03-19T13:13:24.760Z,13.30
2023-03-19T13:15:54.975Z,13.38
2023-03-19T13:18:26.405Z,13.35
2023-03-19T13:21:03.465Z,12.55
2023-03-19T13:23:34.128Z,14.00
2023-03-19T13:26:06.238Z,13.13
2023-03-19T13:28:36.088Z,16.13
2023-03-19T13:31:06.213Z,14.60
2023-03-19T13:33:35.909Z,15.30
2023-03-19T13:36:06.559Z,21.55
2023-03-19T13:38:40.316Z,25.15
2023-03-19T13:41:42.863Z,40.75
2023-03-19T13:44:26.671Z,21.43
2023-03-19T13:46:55.236Z,17.02
2023-03-19T13:49:28.132Z,13.70
2023-03-19T13:52:00.055Z,11.82
2023-03-19T13:54:36.786Z,44.60
2023-03-19T13:57:24.083Z,16.67
2023-03-19T13:59:52.567Z,11.57
2023-03-19T14:02:48.298Z,12.00
2023-03-19T14:05:22.717Z,12.07
2023-03-19T14:07:57.190Z,11.80
2023-03-19T14:10:29.681Z,10.75
2023-03-19T14:13:09.039Z,9.93
2023-03-19T14:15:41.369Z,8.10
2023-03-19T14:18:14.730Z,8.32
2023-03-19T14:20:48.442Z,8.48
2023-03-19T14:23:25.092Z,7.97
2023-03-19T14:26:02.038Z,8.80
2023-03-19T14:28:35.169Z,9.80
2023-03-19T14:31:04.444Z,7.43
2023-03-19T14:33:39.462Z,7.82
2023-03-19T14:36:08.700Z,10.05
2023-03-19T14:38:40.308Z,6.97
2023-03-19T14:41:13.513Z,6.93
2023-03-19T14:43:52.771Z,7.85
2023-03-19T14:46:24.179Z,7.72
2023-03-19T14:49:00.288Z,7.10
2023-03-19T14:51:35.629Z,8.02
2023-03-19T14:54:07.378Z,7.95
2023-03-19T14:56:36.677Z,8.30
2023-03-19T14:59:06.436Z,7.32
2023-03-19T15:01:37.041Z,7.20
2023-03-19T15:04:07.982Z,7.45
2023-03-19T15:06:38.854Z,7.15
2023-03-19T15:09:12.704Z,7.43
2023-03-19T15:11:51.315Z,7.93
2023-03-19T15:14:34.682Z,8.55
2023-03-19T15:17:08.449Z,8.30
2023-03-19T15:19:37.506Z,11.02
2023-03-19T15:22:06.668Z,8.70
2023-03-19T15:24:36.550Z,9.00
2023-03-19T15:27:15.918Z,8.95
2023-03-19T15:29:44.851Z,9.23
2023-03-19T15:32:18.194Z,8.63
2023-03-19T15:34:46.907Z,8.60
2023-03-19T15:37:16.806Z,8.65
2023-03-19T15:39:49.619Z,8.57
2023-03-19T15:42:18.824Z,8.88
2023-03-19T15:44:56.912Z,9.85
2023-03-19T15:47:27.138Z,9.27
2023-03-19T15:49:57.950Z,8.80
2023-03-19T15:52:27.527Z,9.07
2023-03-19T15:54:57.769Z,9.02
2023-03-19T15:57:27.067Z,11.00
2023-03-19T15:59:56.102Z,12.90
2023-03-19T16:02:27.443Z,9.43
2023-03-19T16:05:20.339Z,11.43
2023-03-19T16:07:45.331Z,9.75
2023-03-19T16:10:32.785Z,10.25
2023-03-19T16:13:05.566Z,9.32
2023-03-19T16:15:42.085Z,9.80
2023-03-19T16:18:26.917Z,11.63
2023-03-19T16:21:07.521Z,10.68
2023-03-19T16:23:37.389Z,11.50
2023-03-19T16:26:21.594Z,10.40
2023-03-19T16:28:58.478Z,12.48
2023-03-19T16:31:29.744Z,11.73
2023-03-19T16:33:58.786Z,14.15
2023-03-19T16:36:30.241Z,11.60
2023-03-19T16:38:59.850Z,12.43
2023-03-19T16:41:33.745Z,13.20
2023-03-19T16:44:17.956Z,12.20
2023-03-19T16:46:46.606Z,13.40
2023-03-19T16:49:15.249Z,11.82
2023-03-19T16:51:43.905Z,11.25
2023-03-19T16:54:16.010Z,12.43
2023-03-19T16:56:44.598Z,11.55
2023-03-19T16:59:17.598Z,11.70
2023-03-19T17:01:46.511Z,12.07
2023-03-19T17:04:17.594Z,12.68
2023-03-19T17:06:46.181Z,12.45
2023-03-19T17:09:14.648Z,13.68
2023-03-19T17:11:44.028Z,13.18
2023-03-19T17:14:20.383Z,13.38
2023-03-19T17:16:50.845Z,14.50
2023-03-19T17:19:20.675Z,14.48
2023-03-19T17:21:51.022Z,15.45
2023-03-19T17:24:25.581Z,15.30
2023-03-19T17:26:54.615Z,15.88
2023-03-19T17:29:26.156Z,16.20
2023-03-19T17:31:55.319Z,16.90
2023-03-19T17:34:25.835Z,16.95
2023-03-19T17:36:57.126Z,17.58
2023-03-19T17:39:26.024Z,16.83
2023-03-19T17:41:55.000Z,18.38
2023-03-19T17:44:24.961Z,17.70
2023-03-19T17:46:54.908Z,18.70
2023-03-19T17:49:24.715Z,18.42
2023-03-19T17:51:53.445Z,18.48
2023-03-19T17:54:22.135Z,18.90
2023-03-19T17:56:50.614Z,18.42
2023-03-19T17:59:19.274Z,18.90
2023-03-19T18:01:49.229Z,22.55
2023-03-19T18:04:19.738Z,22.45
2023-03-19T18:06:50.507Z,18.85
2023-03-19T18:09:20.531Z,19.98
2023-03-19T18:11:49.054Z,19.15
2023-03-19T18:14:19.780Z,19.17
2023-03-19T18:16:49.758Z,20.92
2023-03-19T18:19:21.306Z,23.00
2023-03-19T18:21:49.789Z,21.77
2023-03-19T18:24:18.321Z,22.05
2023-03-19T18:26:47.309Z,22.85
2023-03-19T18:29:16.377Z,23.85
2023-03-19T18:31:46.007Z,24.65
2023-03-19T18:34:17.421Z,24.15
2023-03-19T18:36:46.271Z,22.05
2023-03-19T18:39:15.864Z,24.85
2023-03-19T18:41:44.939Z,24.63
2023-03-19T18:44:13.843Z,28.20
2023-03-19T18:46:42.928Z,27.45
2023-03-19T18:49:18.581Z,24.85
2023-03-19T18:52:01.037Z,25.55
2023-03-19T18:54:30.811Z,24.83
2023-03-19T18:56:59.683Z,24.35
2023-03-19T18:59:30.385Z,24.45
2023-03-19T19:02:00.890Z,23.45
2023-03-19T19:04:31.239Z,24.15
2023-03-19T19:07:00.266Z,24.73
2023-03-19T19:09:30.377Z,22.20
2023-03-19T19:12:00.966Z,24.33
2023-03-19T19:14:29.833Z,19.63
2023-03-19T19:16:58.472Z,17.95
2023-03-19T19:19:28.666Z,19.75
2023-03-19T19:21:58.624Z,21.10
2023-03-19T19:24:27.226Z,20.30
2023-03-19T19:26:56.823Z,21.75
2023-03-19T19:29:26.999Z,21.67
2023-03-19T19:31:56.446Z,21.48
2023-03-19T19:34:25.458Z,20.85
2023-03-19T19:36:57.521Z,20.50
2023-03-19T19:39:28.151Z,20.33
2023-03-19T19:41:56.969Z,17.10
2023-03-19T19:44:25.931Z,16.08
2023-03-19T19:46:55.789Z,16.30
2023-03-19T19:49:25.305Z,15.13
2023-03-19T19:51:54.325Z,15.13
2023-03-19T19:54:25.139Z,15.05
2023-03-19T19:56:55.417Z,15.18
2023-03-19T19:59:25.673Z,14.98
2023-03-19T20:01:54.591Z,13.45
2023-03-19T20:04:23.257Z,13.52
2023-03-19T20:06:52.325Z,14.40
2023-03-19T20:09:22.234Z,14.45
2023-03-19T20:11:51.138Z,14.68
2023-03-19T20:14:21.525Z,16.45
2023-03-19T20:16:50.241Z,15.38
2023-03-19T20:19:21.375Z,15.60
2023-03-19T20:21:50.101Z,16.05
2023-03-19T20:24:19.607Z,16.75
2023-03-19T20:26:48.187Z,16.38
2023-03-19T20:29:17.202Z,17.60
2023-03-19T20:31:48.012Z,17.55
2023-03-19T20:34:32.524Z,16.15
2023-03-19T20:37:05.594Z,15.57
2023-03-19T20:39:34.107Z,16.40
2023-03-19T20:42:02.726Z,14.07
2023-03-19T20:44:31.330Z,12.23
2023-03-19T20:47:01.377Z,15.30
2023-03-19T20:49:30.948Z,14.07
2023-03-19T20:51:59.463Z,13.27
2023-03-19T20:54:28.985Z,12.35
2023-03-19T20:56:58.234Z,11.18
2023-03-19T20:59:28.878Z,12.07
2023-03-19T21:01:57.662Z,13.32
2023-03-19T21:04:27.440Z,13.00
2023-03-19T21:06:56.085Z,15.05
2023-03-19T21:09:24.928Z,12.40
2023-03-19T21:11:53.367Z,16.90
2023-03-19T21:14:23.416Z,13.57
2023-03-19T21:16:51.890Z,11.93
2023-03-19T21:19:20.341Z,15.55
2023-03-19T21:21:50.253Z,17.33
2023-03-19T21:24:19.736Z,16.35
2023-03-19T21:26:48.433Z,15.40
2023-03-19T21:29:21.800Z,15.07
2023-03-19T21:31:50.329Z,12.93
2023-03-19T21:34:19.134Z,16.10
2023-03-19T21:36:47.912Z,13.60
2023-03-19T21:39:18.106Z,12.23
2023-03-19T21:41:48.302Z,12.60
2023-03-19T21:44:18.245Z,16.60
2023-03-19T21:46:48.121Z,16.23
2023-03-19T21:49:16.717Z,12.88
2023-03-19T21:51:46.738Z,13.07
2023-03-19T21:54:15.661Z,14.60
2023-03-19T21:56:46.796Z,11.23
2023-03-19T21:59:16.645Z,10.30
2023-03-19T22:01:45.271Z,10.02
2023-03-19T22:04:13.914Z,10.60
2023-03-19T22:06:43.006Z,8.13
2023-03-19T22:09:11.684Z,7.65
2023-03-19T22:11:41.816Z,7.40
2023-03-19T22:14:15.617Z,7.43
2023-03-19T22:16:44.531Z,7.15
2023-03-19T22:19:15.041Z,7.68
2023-03-19T22:21:43.837Z,7.70
2023-03-19T22:24:12.530Z,7.07
2023-03-19T22:26:41.810Z,7.55
2023-03-19T22:29:14.097Z,7.95
2023-03-19T22:31:44.131Z,7.45
2023-03-19T22:34:15.453Z,7.63
2023-03-19T22:36:44.187Z,7.72
2023-03-19T22:39:13.628Z,7.13
2023-03-19T22:41:45.824Z,7.18
2023-03-19T22:44:25.139Z,7.38
2023-03-19T22:46:55.933Z,7.45
2023-03-19T22:49:25.282Z,8.00
2023-03-19T22:51:53.862Z,7.45
2023-03-19T22:54:22.413Z,8.23
2023-03-19T22:56:53.828Z,7.70
2023-03-19T22:59:22.961Z,7.47
2023-03-19T23:01:51.589Z,7.28
2023-03-19T23:04:22.965Z,7.15
2023-03-19T23:06:54.272Z,7.13
2023-03-19T23:09:24.042Z,7.05
2023-03-19T23:11:53.599Z,8.00
2023-03-19T23:14:29.626Z,7.32
2023-03-19T23:19:29.748Z,8.15
2023-03-19T23:21:59.022Z,7.75
2023-03-19T23:24:28.088Z,7.72
2023-03-19T23:26:58.111Z,7.90
2023-03-19T23:29:29.396Z,8.23
2023-03-19T23:31:58.911Z,8.30
2023-03-19T23:34:29.444Z,8.93
2023-03-19T23:37:00.057Z,9.50
2023-03-19T23:39:29.260Z,10.02
2023-03-19T23:42:00.401Z,9.68
2023-03-19T23:44:29.535Z,8.30
2023-03-19T23:47:02.377Z,9.15
2023-03-19T23:49:33.629Z,8.65
2023-03-19T23:52:04.405Z,8.25
2023-03-19T23:54:33.977Z,7.80
2023-03-19T23:57:05.171Z,7.10
2023-03-19T23:59:35.808Z,6.78
